createdAt,value
2023-03-18T00:01:04.216Z,6.38
2023-03-18T00:05:26.283Z,5.15
2023-03-18T00:09:48.823Z,5.68
2023-03-18T00:14:11.327Z,6.53
2023-03-18T00:18:34.540Z,5.78
2023-03-18T00:22:57.659Z,6.18
2023-03-18T00:27:19.895Z,5.50
2023-03-18T00:31:42.267Z,5.93
2023-03-18T00:36:06.705Z,7.07
2023-03-18T00:40:43.196Z,6.47
2023-03-18T00:45:13.674Z,6.47
2023-03-18T00:49:36.817Z,6.07
2023-03-18T00:54:02.130Z,6.00
2023-03-18T00:58:24.783Z,6.30
2023-03-18T01:02:49.447Z,6.47
2023-03-18T01:07:12.639Z,5.93
2023-03-18T01:11:35.058Z,6.03
2023-03-18T01:15:57.670Z,5.68
2023-03-18T01:20:21.257Z,6.25
2023-03-18T01:24:47.640Z,5.30
2023-03-18T01:29:11.557Z,5.68
2023-03-18T01:33:35.836Z,6.05
2023-03-18T01:37:59.039Z,5.90
2023-03-18T01:42:22.418Z,5.15
2023-03-18T01:46:50.205Z,5.95
2023-03-18T01:51:14.572Z,5.65
2023-03-18T01:55:38.493Z,5.20
2023-03-18T02:00:02.185Z,5.60
2023-03-18T02:04:33.311Z,6.00
2023-03-18T02:08:56.212Z,5.40
2023-03-18T02:13:18.873Z,5.38
2023-03-18T02:17:53.874Z,6.03
2023-03-18T02:22:29.580Z,5.30
2023-03-18T02:27:18.601Z,5.65
2023-03-18T02:31:42.624Z,5.60
2023-03-18T02:36:12.354Z,6.07
2023-03-18T02:40:42.791Z,5.28
2023-03-18T02:45:45.716Z,5.65
2023-03-18T02:50:10.114Z,5.38
2023-03-18T02:54:34.026Z,5.80
2023-03-18T02:58:56.216Z,3.72
2023-03-18T03:03:18.752Z,5.32
2023-03-18T03:07:41.696Z,5.40
2023-03-18T03:12:05.428Z,5.55
2023-03-18T03:16:29.755Z,5.88
2023-03-18T03:20:52.741Z,5.72
2023-03-18T03:25:15.421Z,5.65
2023-03-18T03:29:37.256Z,6.03
2023-03-18T03:33:59.747Z,5.68
2023-03-18T03:38:23.279Z,5.95
2023-03-18T03:42:46.400Z,5.63
2023-03-18T03:47:08.638Z,6.45
2023-03-18T03:51:30.479Z,5.55
2023-03-18T03:55:55.636Z,5.90
2023-03-18T04:00:22.918Z,6.45
2023-03-18T04:04:46.401Z,5.85
2023-03-18T04:09:19.562Z,5.82
2023-03-18T04:13:41.743Z,5.10
2023-03-18T04:18:07.185Z,6.15
2023-03-18T04:22:30.752Z,5.20
2023-03-18T04:26:53.263Z,5.68
2023-03-18T04:31:16.834Z,6.70
2023-03-18T04:35:38.854Z,5.75
2023-03-18T04:40:01.701Z,5.28
2023-03-18T04:44:25.634Z,5.85
2023-03-18T04:48:47.782Z,5.60
2023-03-18T04:53:10.076Z,5.65
2023-03-18T04:57:35.631Z,5.53
2023-03-18T05:01:58.283Z,6.35
2023-03-18T05:06:30.163Z,6.57
2023-03-18T05:10:59.511Z,5.88
2023-03-18T05:15:21.525Z,5.97
2023-03-18T05:19:49.358Z,5.72
2023-03-18T05:24:15.708Z,5.65
2023-03-18T05:28:38.050Z,5.57
2023-03-18T05:33:23.433Z,5.22
2023-03-18T05:37:51.324Z,6.25
2023-03-18T05:42:14.301Z,5.40
2023-03-18T05:46:37.149Z,5.03
2023-03-18T05:51:05.988Z,5.70
2023-03-18T05:55:31.173Z,6.57
2023-03-18T05:59:53.785Z,5.80
2023-03-18T06:04:19.499Z,5.28
2023-03-18T06:08:41.551Z,5.53
2023-03-18T06:13:03.723Z,5.75
2023-03-18T06:17:28.486Z,5.07
2023-03-18T06:21:51.089Z,5.57
2023-03-18T06:26:12.692Z,5.40
2023-03-18T06:30:42.342Z,5.53
2023-03-18T06:35:06.624Z,5.95
2023-03-18T06:39:29.256Z,5.30
2023-03-18T06:43:53.777Z,5.20
2023-03-18T06:48:15.659Z,5.03
2023-03-18T06:52:39.438Z,4.63
2023-03-18T06:57:07.687Z,5.00
2023-03-18T07:01:33.077Z,5.00
2023-03-18T07:05:56.196Z,5.22
2023-03-18T07:10:27.581Z,5.22
2023-03-18T07:15:00.382Z,4.90
2023-03-18T07:19:25.401Z,5.20
2023-03-18T07:23:47.390Z,4.97
2023-03-18T07:28:09.438Z,4.65
2023-03-18T07:32:31.849Z,4.90
2023-03-18T07:36:53.749Z,5.32
2023-03-18T07:41:15.940Z,4.32
2023-03-18T07:45:37.682Z,5.07
2023-03-18T07:50:00.223Z,4.55
2023-03-18T07:54:25.140Z,4.80
2023-03-18T07:58:48.071Z,4.30
2023-03-18T08:03:11.993Z,5.15
2023-03-18T08:07:34.877Z,4.47
2023-03-18T08:11:57.095Z,4.78
2023-03-18T08:16:18.961Z,4.38
2023-03-18T08:20:41.476Z,4.88
2023-03-18T08:25:03.636Z,5.15
2023-03-18T08:29:25.250Z,4.32
2023-03-18T08:33:47.672Z,3.97
2023-03-18T08:38:10.176Z,4.90
2023-03-18T08:42:31.911Z,4.07
2023-03-18T08:46:53.958Z,4.60
2023-03-18T08:51:16.988Z,4.10
2023-03-18T08:55:39.891Z,4.13
2023-03-18T09:00:02.034Z,4.28
2023-03-18T09:04:25.949Z,4.50
2023-03-18T09:08:48.032Z,6.45
2023-03-18T09:13:09.917Z,6.00
2023-03-18T09:17:48.872Z,3.83
2023-03-18T09:22:13.671Z,4.13
2023-03-18T09:26:35.505Z,3.90
2023-03-18T09:30:57.910Z,3.60
2023-03-18T09:35:20.465Z,3.33
2023-03-18T09:39:42.821Z,3.03
2023-03-18T09:44:37.684Z,2.83
2023-03-18T09:49:26.098Z,2.53
2023-03-18T09:53:54.572Z,2.25
2023-03-18T09:58:56.421Z,2.28
2023-03-18T10:03:42.732Z,2.58
2023-03-18T10:08:18.373Z,2.25
2023-03-18T10:12:48.449Z,2.20
2023-03-18T10:18:01.784Z,2.30
2023-03-18T10:23:10.230Z,2.30
2023-03-18T10:27:59.355Z,1.92
2023-03-18T10:32:49.036Z,2.15
2023-03-18T10:37:51.588Z,2.67
2023-03-18T10:42:30.043Z,2.00
2023-03-18T10:47:02.116Z,2.10
2023-03-18T10:52:01.179Z,2.92
2023-03-18T10:56:22.996Z,2.40
2023-03-18T11:00:45.411Z,2.47
2023-03-18T11:05:41.412Z,1.48
2023-03-18T11:10:18.711Z,2.03
2023-03-18T11:14:42.283Z,2.28
2023-03-18T11:19:41.919Z,1.88
2023-03-18T11:24:10.869Z,2.08
2023-03-18T11:28:33.359Z,2.42
2023-03-18T11:33:12.977Z,2.00
2023-03-18T11:37:35.785Z,2.70
2023-03-18T11:42:00.097Z,1.95
2023-03-18T11:46:25.541Z,2.20
2023-03-18T11:51:03.500Z,2.22
2023-03-18T11:55:58.566Z,2.13
2023-03-18T12:00:43.573Z,2.72
2023-03-18T12:05:53.338Z,1.77
2023-03-18T12:10:32.832Z,2.00
2023-03-18T12:15:11.626Z,1.70
2023-03-18T12:20:16.354Z,2.28
2023-03-18T12:25:08.576Z,2.30
2023-03-18T12:30:14.449Z,2.85
2023-03-18T12:35:21.734Z,2.28
2023-03-18T12:40:24.947Z,2.33
2023-03-18T12:45:05.561Z,2.45
2023-03-18T12:50:08.811Z,1.83
2023-03-18T12:55:15.839Z,2.30
2023-03-18T12:59:53.303Z,2.13
2023-03-18T13:04:31.507Z,1.90
2023-03-18T13:09:43.780Z,1.77
2023-03-18T13:14:45.642Z,2.05
2023-03-18T13:19:11.578Z,1.60
2023-03-18T13:24:05.657Z,1.65
2023-03-18T13:29:01.260Z,2.38
2023-03-18T13:33:43.571Z,1.75
2023-03-18T13:38:25.950Z,1.77
2023-03-18T13:42:49.678Z,2.65
2023-03-18T13:47:18.722Z,1.52
2023-03-18T13:51:44.187Z,1.80
2023-03-18T13:56:25.940Z,2.58
2023-03-18T14:01:00.497Z,2.38
2023-03-18T14:05:41.138Z,2.00
2023-03-18T14:10:18.313Z,2.38
2023-03-18T14:14:53.800Z,1.70
2023-03-18T14:19:32.436Z,1.75
2023-03-18T14:24:13.637Z,1.80
2023-03-18T14:28:50.736Z,1.65
2023-03-18T14:33:18.833Z,1.90
2023-03-18T14:38:17.538Z,1.70
2023-03-18T14:43:00.930Z,1.70
2023-03-18T14:47:48.726Z,2.00
2023-03-18T14:52:36.897Z,1.27
2023-03-18T14:57:02.821Z,1.65
2023-03-18T15:01:34.886Z,1.77
2023-03-18T15:06:00.789Z,1.83
2023-03-18T15:10:31.016Z,2.15
2023-03-18T15:14:53.007Z,1.73
2023-03-18T15:19:19.190Z,1.83
2023-03-18T15:23:53.046Z,1.70
2023-03-18T15:28:21.935Z,1.88
2023-03-18T15:32:49.862Z,2.00
2023-03-18T15:37:26.229Z,2.08
2023-03-18T15:41:53.558Z,1.80
2023-03-18T15:46:31.073Z,2.13
2023-03-18T15:51:00.664Z,2.13
2023-03-18T15:55:31.443Z,1.98
2023-03-18T15:59:54.402Z,2.03
2023-03-18T16:04:18.336Z,1.92
2023-03-18T16:08:40.106Z,2.03
2023-03-18T16:13:04.438Z,2.10
2023-03-18T16:17:26.871Z,1.83
2023-03-18T16:21:48.943Z,2.45
2023-03-18T16:26:18.450Z,2.60
2023-03-18T16:30:41.498Z,2.95
2023-03-18T16:35:03.792Z,3.95
2023-03-18T16:39:33.904Z,5.57
2023-03-18T16:43:56.033Z,5.82
2023-03-18T16:48:21.987Z,6.25
2023-03-18T16:52:45.175Z,6.60
2023-03-18T16:57:14.149Z,6.60
2023-03-18T17:01:36.022Z,7.43
2023-03-18T17:05:58.473Z,6.70
2023-03-18T17:10:24.853Z,6.88
2023-03-18T17:14:53.781Z,7.30
2023-03-18T17:19:16.911Z,8.55
2023-03-18T17:23:38.779Z,7.47
2023-03-18T17:28:06.240Z,8.63
2023-03-18T17:32:28.060Z,7.53
2023-03-18T17:36:50.214Z,8.75
2023-03-18T17:41:30.297Z,8.43
2023-03-18T17:45:52.160Z,8.60
2023-03-18T17:50:15.926Z,7.82
2023-03-18T17:54:37.935Z,8.65
2023-03-18T17:59:00.743Z,8.48
2023-03-18T18:03:28.627Z,10.75
2023-03-18T18:07:51.598Z,8.43
2023-03-18T18:12:25.447Z,8.52
2023-03-18T18:16:48.578Z,8.80
2023-03-18T18:21:18.312Z,10.07
2023-03-18T18:25:40.912Z,10.23
2023-03-18T18:30:02.748Z,9.45
2023-03-18T18:34:24.738Z,9.45
2023-03-18T18:38:46.676Z,10.73
2023-03-18T18:43:09.121Z,10.48
2023-03-18T18:47:32.790Z,9.43
2023-03-18T18:51:56.161Z,10.65
2023-03-18T18:56:36.856Z,11.05
2023-03-18T19:01:00.344Z,10.50
2023-03-18T19:05:22.393Z,10.00
2023-03-18T19:09:45.555Z,10.45
2023-03-18T19:14:33.923Z,12.10
2023-03-18T19:18:55.861Z,11.65
2023-03-18T19:23:24.887Z,11.25
2023-03-18T19:27:47.119Z,11.38
2023-03-18T19:32:19.123Z,11.13
2023-03-18T19:36:41.700Z,11.93
2023-03-18T19:41:03.830Z,12.27
2023-03-18T19:45:26.224Z,11.77
2023-03-18T19:49:47.810Z,12.00
2023-03-18T19:54:35.516Z,12.18
2023-03-18T19:58:59.298Z,11.50
2023-03-18T20:03:21.775Z,12.07
2023-03-18T20:07:43.711Z,12.68
2023-03-18T20:12:09.907Z,11.27
2023-03-18T20:16:32.199Z,12.07
2023-03-18T20:20:54.101Z,12.45
2023-03-18T20:25:30.688Z,12.00
2023-03-18T20:29:52.330Z,13.60
2023-03-18T20:34:14.404Z,14.30
2023-03-18T20:38:39.263Z,12.25
2023-03-18T20:43:01.700Z,13.40
2023-03-18T20:47:23.774Z,12.45
2023-03-18T20:51:45.835Z,12.63
2023-03-18T20:56:08.196Z,12.40
2023-03-18T21:00:33.337Z,12.93
2023-03-18T21:04:57.607Z,14.07
2023-03-18T21:09:19.620Z,13.70
2023-03-18T21:13:41.896Z,13.50
2023-03-18T21:18:04.752Z,13.85
2023-03-18T21:22:30.046Z,12.20
2023-03-18T21:27:03.686Z,12.88
2023-03-18T21:31:33.222Z,12.95
2023-03-18T21:35:57.222Z,12.18
2023-03-18T21:40:24.576Z,13.82
2023-03-18T21:44:46.425Z,12.73
2023-03-18T21:49:08.330Z,12.90
2023-03-18T21:53:30.166Z,12.88
2023-03-18T21:57:58.077Z,13.68
2023-03-18T22:02:25.221Z,12.73
2023-03-18T22:06:47.206Z,12.55
2023-03-18T22:11:22.104Z,12.80
2023-03-18T22:15:44.606Z,12.73
2023-03-18T22:20:07.363Z,12.98
2023-03-18T22:24:29.208Z,11.75
2023-03-18T22:28:51.117Z,12.88
2023-03-18T22:33:33.673Z,11.45
2023-03-18T22:37:56.196Z,12.63
2023-03-18T22:42:25.779Z,12.75
2023-03-18T22:46:47.897Z,12.07
2023-03-18T22:51:27.749Z,12.90
2023-03-18T22:55:51.676Z,11.85
2023-03-18T23:00:39.317Z,12.70
2023-03-18T23:05:00.978Z,12.45
2023-03-18T23:09:23.100Z,12.32
2023-03-18T23:13:50.196Z,12.10
2023-03-18T23:18:15.702Z,11.48
2023-03-18T23:22:37.362Z,13.05
2023-03-18T23:26:59.195Z,12.35
2023-03-18T23:31:21.366Z,12.50
2023-03-18T23:35:44.784Z,12.40
2023-03-18T23:40:07.467Z,13.18
2023-03-18T23:44:29.200Z,12.18
2023-03-18T23:48:51.414Z,11.10
2023-03-18T23:53:13.340Z,11.35
2023-03-18T23:57:35.676Z,12.05
